Brechin, United Kingdom
Current Conditions -  °F | °C
As of 5:50 PM on Thursday 30 Oct 2014 (Local Time) from EGPN Reporting Station
Broken Clouds Broken Clouds  
Wind Chill: 52°   Ceiling: 2000
Heat Index: 52°   Visibility: 5mi
Dew Point: 52°   Wind: 2mph
Humidity: 100%   Direction: 80°E
Pressure: 29.85"   Gusts: NA
Location:  56.73°N, 2.66°W
Report Text: EGPN 301750Z 08002KT 8000 FEW008 SCT011 BKN020 11/11 Q1011
Loading
Personal Weather Stations






























Interactive Weather Map New forecast layout! Learn more

10-Day Weather Forecast

Advertisements
Track Severe Weather on mobile